sensor_id;sensor_type;location;lat;lon;timestamp;P1;durP1;ratioP1;P2;durP2;ratioP2
21675;SDS011;10999;51.332;9.458;2024-03-23T00:54:37;5.20;;;1.90;;
21675;SDS011;10999;51.332;9.458;2024-03-23T00:57:03;6.45;;;1.60;;
21675;SDS011;10999;51.332;9.458;2024-03-23T00:59:29;6.93;;;2.63;;
21675;SDS011;10999;51.332;9.458;2024-03-23T01:01:56;7.20;;;1.98;;
21675;SDS011;10999;51.332;9.458;2024-03-23T01:04:22;7.18;;;2.20;;
21675;SDS011;10999;51.332;9.458;2024-03-23T01:06:48;7.35;;;1.80;;
21675;SDS011;10999;51.332;9.458;2024-03-23T01:09:14;6.13;;;2.40;;
21675;SDS011;10999;51.332;9.458;2024-03-23T01:11:39;5.93;;;1.58;;
21675;SDS011;10999;51.332;9.458;2024-03-23T01:14:05;7.32;;;1.58;;
21675;SDS011;10999;51.332;9.458;2024-03-23T01:18:57;6.25;;;1.77;;
21675;SDS011;10999;51.332;9.458;2024-03-23T01:21:23;5.22;;;1.58;;
21675;SDS011;10999;51.332;9.458;2024-03-23T01:23:49;9.18;;;2.25;;
21675;SDS011;10999;51.332;9.458;2024-03-23T01:26:15;10.18;;;2.40;;
21675;SDS011;10999;51.332;9.458;2024-03-23T01:28:40;6.88;;;1.80;;
21675;SDS011;10999;51.332;9.458;2024-03-23T01:31:06;9.80;;;2.55;;
21675;SDS011;10999;51.332;9.458;2024-03-23T01:33:32;4.28;;;1.67;;
21675;SDS011;10999;51.332;9.458;2024-03-23T01:35:58;5.72;;;1.48;;
21675;SDS011;10999;51.332;9.458;2024-03-23T01:38:24;6.35;;;1.42;;
21675;SDS011;10999;51.332;9.458;2024-03-23T01:40:55;9.85;;;2.00;;
21675;SDS011;10999;51.332;9.458;2024-03-23T01:43:22;5.90;;;1.55;;
21675;SDS011;10999;51.332;9.458;2024-03-23T01:45:48;5.00;;;1.55;;
21675;SDS011;10999;51.332;9.458;2024-03-23T01:48:14;10.07;;;2.15;;
21675;SDS011;10999;51.332;9.458;2024-03-23T01:50:39;8.65;;;1.40;;
21675;SDS011;10999;51.332;9.458;2024-03-23T01:53:05;7.80;;;1.75;;
21675;SDS011;10999;51.332;9.458;2024-03-23T01:57:58;8.73;;;1.67;;
21675;SDS011;10999;51.332;9.458;2024-03-23T02:00:24;10.80;;;2.17;;
21675;SDS011;10999;51.332;9.458;2024-03-23T02:02:50;5.80;;;1.60;;
21675;SDS011;10999;51.332;9.458;2024-03-23T02:05:16;7.03;;;2.28;;
21675;SDS011;10999;51.332;9.458;2024-03-23T02:07:42;7.70;;;2.03;;
21675;SDS011;10999;51.332;9.458;2024-03-23T02:10:09;4.78;;;1.58;;
21675;SDS011;10999;51.332;9.458;2024-03-23T02:12:36;7.78;;;2.10;;
21675;SDS011;10999;51.332;9.458;2024-03-23T02:15:02;4.55;;;2.03;;
21675;SDS011;10999;51.332;9.458;2024-03-23T02:17:29;9.25;;;2.17;;
21675;SDS011;10999;51.332;9.458;2024-03-23T02:19:56;7.30;;;2.67;;
21675;SDS011;10999;51.332;9.458;2024-03-23T02:22:22;9.05;;;2.05;;
21675;SDS011;10999;51.332;9.458;2024-03-23T02:24:47;9.48;;;2.28;;
21675;SDS011;10999;51.332;9.458;2024-03-23T02:27:13;10.93;;;2.20;;
21675;SDS011;10999;51.332;9.458;2024-03-23T02:29:39;10.30;;;2.47;;
21675;SDS011;10999;51.332;9.458;2024-03-23T02:32:05;6.43;;;2.85;;
21675;SDS011;10999;51.332;9.458;2024-03-23T02:34:31;6.22;;;2.33;;
21675;SDS011;10999;51.332;9.458;2024-03-23T02:36:57;11.90;;;2.08;;
21675;SDS011;10999;51.332;9.458;2024-03-23T02:39:22;5.40;;;1.75;;
21675;SDS011;10999;51.332;9.458;2024-03-23T02:41:48;9.63;;;2.60;;
21675;SDS011;10999;51.332;9.458;2024-03-23T02:44:14;8.65;;;1.73;;
21675;SDS011;10999;51.332;9.458;2024-03-23T02:46:40;5.13;;;1.65;;
21675;SDS011;10999;51.332;9.458;2024-03-23T02:49:06;8.27;;;2.05;;
21675;SDS011;10999;51.332;9.458;2024-03-23T02:51:32;6.03;;;1.90;;
21675;SDS011;10999;51.332;9.458;2024-03-23T02:53:58;6.10;;;2.10;;
21675;SDS011;10999;51.332;9.458;2024-03-23T02:56:24;6.72;;;2.15;;
21675;SDS011;10999;51.332;9.458;2024-03-23T02:58:50;8.95;;;2.85;;
21675;SDS011;10999;51.332;9.458;2024-03-23T03:01:15;6.20;;;1.92;;
21675;SDS011;10999;51.332;9.458;2024-03-23T03:03:41;5.35;;;1.90;;
21675;SDS011;10999;51.332;9.458;2024-03-23T03:06:07;7.75;;;1.50;;
21675;SDS011;10999;51.332;9.458;2024-03-23T03:08:33;3.55;;;1.42;;
21675;SDS011;10999;51.332;9.458;2024-03-23T03:10:59;7.95;;;1.40;;
21675;SDS011;10999;51.332;9.458;2024-03-23T03:13:25;3.38;;;0.95;;
21675;SDS011;10999;51.332;9.458;2024-03-23T03:15:50;3.17;;;1.23;;
21675;SDS011;10999;51.332;9.458;2024-03-23T03:18:16;5.35;;;1.50;;
21675;SDS011;10999;51.332;9.458;2024-03-23T03:20:42;4.38;;;1.38;;
21675;SDS011;10999;51.332;9.458;2024-03-23T03:23:09;4.55;;;1.40;;
21675;SDS011;10999;51.332;9.458;2024-03-23T03:25:35;4.28;;;1.00;;
21675;SDS011;10999;51.332;9.458;2024-03-23T03:28:00;2.92;;;0.90;;
21675;SDS011;10999;51.332;9.458;2024-03-23T03:32:52;6.00;;;1.08;;
21675;SDS011;10999;51.332;9.458;2024-03-23T03:35:19;3.47;;;1.42;;
21675;SDS011;10999;51.332;9.458;2024-03-23T03:37:45;2.95;;;1.08;;
21675;SDS011;10999;51.332;9.458;2024-03-23T03:40:11;3.10;;;1.00;;
21675;SDS011;10999;51.332;9.458;2024-03-23T03:42:37;3.78;;;1.25;;
21675;SDS011;10999;51.332;9.458;2024-03-23T03:45:04;3.63;;;1.17;;
21675;SDS011;10999;51.332;9.458;2024-03-23T03:47:30;6.05;;;1.10;;
21675;SDS011;10999;51.332;9.458;2024-03-23T03:49:56;5.13;;;1.00;;
21675;SDS011;10999;51.332;9.458;2024-03-23T03:52:22;6.88;;;1.55;;
21675;SDS011;10999;51.332;9.458;2024-03-23T03:54:47;7.15;;;1.30;;
21675;SDS011;10999;51.332;9.458;2024-03-23T03:57:13;2.97;;;1.27;;
21675;SDS011;10999;51.332;9.458;2024-03-23T03:59:39;4.63;;;1.02;;
21675;SDS011;10999;51.332;9.458;2024-03-23T04:02:05;5.07;;;1.13;;
21675;SDS011;10999;51.332;9.458;2024-03-23T04:04:30;4.03;;;1.02;;
21675;SDS011;10999;51.332;9.458;2024-03-23T04:06:59;3.33;;;1.60;;
21675;SDS011;10999;51.332;9.458;2024-03-23T04:09:26;4.63;;;1.10;;
21675;SDS011;10999;51.332;9.458;2024-03-23T04:14:18;7.95;;;2.00;;
21675;SDS011;10999;51.332;9.458;2024-03-23T04:16:44;3.40;;;0.90;;
21675;SDS011;10999;51.332;9.458;2024-03-23T04:19:10;3.35;;;1.25;;
21675;SDS011;10999;51.332;9.458;2024-03-23T04:21:36;2.63;;;0.85;;
21675;SDS011;10999;51.332;9.458;2024-03-23T04:24:03;5.03;;;1.65;;
21675;SDS011;10999;51.332;9.458;2024-03-23T04:26:30;7.80;;;1.83;;
21675;SDS011;10999;51.332;9.458;2024-03-23T04:29:05;2.92;;;1.00;;
21675;SDS011;10999;51.332;9.458;2024-03-23T04:31:31;7.80;;;1.38;;
21675;SDS011;10999;51.332;9.458;2024-03-23T04:33:59;6.40;;;1.20;;
21675;SDS011;10999;51.332;9.458;2024-03-23T04:36:28;4.93;;;0.70;;
21675;SDS011;10999;51.332;9.458;2024-03-23T04:38:53;5.00;;;0.90;;
21675;SDS011;10999;51.332;9.458;2024-03-23T04:41:19;6.35;;;0.85;;
21675;SDS011;10999;51.332;9.458;2024-03-23T04:43:45;3.55;;;0.90;;
21675;SDS011;10999;51.332;9.458;2024-03-23T04:46:11;4.30;;;0.80;;
21675;SDS011;10999;51.332;9.458;2024-03-23T04:48:36;2.95;;;0.82;;
21675;SDS011;10999;51.332;9.458;2024-03-23T04:51:02;3.03;;;1.10;;
21675;SDS011;10999;51.332;9.458;2024-03-23T04:53:29;2.40;;;0.65;;
21675;SDS011;10999;51.332;9.458;2024-03-23T04:55:55;3.17;;;0.90;;
21675;SDS011;10999;51.332;9.458;2024-03-23T04:58:22;2.95;;;0.85;;
21675;SDS011;10999;51.332;9.458;2024-03-23T05:00:52;2.03;;;0.57;;
21675;SDS011;10999;51.332;9.458;2024-03-23T05:03:19;3.92;;;1.13;;
21675;SDS011;10999;51.332;9.458;2024-03-23T05:05:46;2.42;;;0.75;;
21675;SDS011;10999;51.332;9.458;2024-03-23T05:08:13;2.55;;;0.88;;
21675;SDS011;10999;51.332;9.458;2024-03-23T05:10:41;2.67;;;0.70;;
21675;SDS011;10999;51.332;9.458;2024-03-23T05:13:07;1.20;;;0.40;;
21675;SDS011;10999;51.332;9.458;2024-03-23T05:15:33;2.42;;;0.73;;
21675;SDS011;10999;51.332;9.458;2024-03-23T05:18:00;2.42;;;1.02;;
21675;SDS011;10999;51.332;9.458;2024-03-23T05:20:25;3.47;;;0.82;;
21675;SDS011;10999;51.332;9.458;2024-03-23T05:22:51;0.73;;;0.35;;
21675;SDS011;10999;51.332;9.458;2024-03-23T05:25:17;3.97;;;0.40;;
21675;SDS011;10999;51.332;9.458;2024-03-23T05:27:43;4.93;;;0.70;;
21675;SDS011;10999;51.332;9.458;2024-03-23T05:30:09;0.52;;;0.38;;
21675;SDS011;10999;51.332;9.458;2024-03-23T05:32:36;0.75;;;0.30;;
21675;SDS011;10999;51.332;9.458;2024-03-23T05:35:01;1.25;;;0.32;;
21675;SDS011;10999;51.332;9.458;2024-03-23T05:37:27;0.88;;;0.35;;
21675;SDS011;10999;51.332;9.458;2024-03-23T05:39:53;2.38;;;0.30;;
21675;SDS011;10999;51.332;9.458;2024-03-23T05:42:19;1.80;;;0.50;;
21675;SDS011;10999;51.332;9.458;2024-03-23T05:44:45;2.47;;;0.57;;
21675;SDS011;10999;51.332;9.458;2024-03-23T05:47:11;1.20;;;0.32;;
21675;SDS011;10999;51.332;9.458;2024-03-23T05:49:41;1.08;;;0.32;;
21675;SDS011;10999;51.332;9.458;2024-03-23T05:52:08;0.38;;;0.20;;
21675;SDS011;10999;51.332;9.458;2024-03-23T05:57:00;1.55;;;0.40;;
21675;SDS011;10999;51.332;9.458;2024-03-23T05:59:27;1.88;;;0.60;;
21675;SDS011;10999;51.332;9.458;2024-03-23T06:01:53;0.60;;;0.30;;
21675;SDS011;10999;51.332;9.458;2024-03-23T06:04:19;2.03;;;0.80;;
21675;SDS011;10999;51.332;9.458;2024-03-23T06:06:45;0.90;;;0.47;;
21675;SDS011;10999;51.332;9.458;2024-03-23T06:09:11;1.90;;;0.52;;
21675;SDS011;10999;51.332;9.458;2024-03-23T06:11:36;1.67;;;0.63;;
21675;SDS011;10999;51.332;9.458;2024-03-23T06:14:02;0.85;;;0.20;;
21675;SDS011;10999;51.332;9.458;2024-03-23T06:16:28;1.67;;;0.40;;
21675;SDS011;10999;51.332;9.458;2024-03-23T06:18:55;1.45;;;0.35;;
21675;SDS011;10999;51.332;9.458;2024-03-23T06:21:21;0.20;;;0.20;;
21675;SDS011;10999;51.332;9.458;2024-03-23T06:23:51;1.23;;;0.85;;
21675;SDS011;10999;51.332;9.458;2024-03-23T06:26:18;2.72;;;0.70;;
21675;SDS011;10999;51.332;9.458;2024-03-23T06:28:44;1.73;;;0.70;;
21675;SDS011;10999;51.332;9.458;2024-03-23T06:31:10;2.08;;;0.70;;
21675;SDS011;10999;51.332;9.458;2024-03-23T06:33:36;1.15;;;0.30;;
21675;SDS011;10999;51.332;9.458;2024-03-23T06:38:33;1.00;;;0.63;;
21675;SDS011;10999;51.332;9.458;2024-03-23T06:41:02;1.52;;;0.57;;
21675;SDS011;10999;51.332;9.458;2024-03-23T06:43:28;1.92;;;0.40;;
21675;SDS011;10999;51.332;9.458;2024-03-23T06:45:54;3.42;;;0.73;;
21675;SDS011;10999;51.332;9.458;2024-03-23T06:48:20;1.35;;;0.40;;
21675;SDS011;10999;51.332;9.458;2024-03-23T06:50:49;2.50;;;0.55;;
21675;SDS011;10999;51.332;9.458;2024-03-23T06:53:15;3.35;;;0.40;;
21675;SDS011;10999;51.332;9.458;2024-03-23T06:55:41;1.38;;;0.45;;
21675;SDS011;10999;51.332;9.458;2024-03-23T06:58:07;0.73;;;0.40;;
21675;SDS011;10999;51.332;9.458;2024-03-23T07:02:59;2.30;;;0.50;;
21675;SDS011;10999;51.332;9.458;2024-03-23T07:05:25;3.85;;;0.60;;
21675;SDS011;10999;51.332;9.458;2024-03-23T07:07:51;2.65;;;0.50;;
21675;SDS011;10999;51.332;9.458;2024-03-23T07:10:17;2.67;;;0.70;;
21675;SDS011;10999;51.332;9.458;2024-03-23T07:12:43;0.90;;;0.50;;
21675;SDS011;10999;51.332;9.458;2024-03-23T07:15:09;2.53;;;0.68;;
21675;SDS011;10999;51.332;9.458;2024-03-23T07:17:35;1.13;;;0.50;;
21675;SDS011;10999;51.332;9.458;2024-03-23T07:20:01;1.00;;;0.40;;
21675;SDS011;10999;51.332;9.458;2024-03-23T07:22:32;1.77;;;0.65;;
21675;SDS011;10999;51.332;9.458;2024-03-23T07:25:01;3.28;;;0.73;;
21675;SDS011;10999;51.332;9.458;2024-03-23T07:27:28;1.77;;;0.60;;
21675;SDS011;10999;51.332;9.458;2024-03-23T07:29:54;2.65;;;0.57;;
21675;SDS011;10999;51.332;9.458;2024-03-23T07:32:20;2.72;;;0.60;;
21675;SDS011;10999;51.332;9.458;2024-03-23T07:34:46;1.30;;;0.50;;
21675;SDS011;10999;51.332;9.458;2024-03-23T07:37:12;3.45;;;0.65;;
21675;SDS011;10999;51.332;9.458;2024-03-23T07:39:38;2.42;;;0.55;;
21675;SDS011;10999;51.332;9.458;2024-03-23T07:42:05;3.75;;;0.75;;
21675;SDS011;10999;51.332;9.458;2024-03-23T07:44:31;1.00;;;0.60;;
21675;SDS011;10999;51.332;9.458;2024-03-23T07:46:58;3.03;;;0.52;;
21675;SDS011;10999;51.332;9.458;2024-03-23T07:49:26;5.65;;;0.70;;
21675;SDS011;10999;51.332;9.458;2024-03-23T07:54:18;1.52;;;0.50;;
21675;SDS011;10999;51.332;9.458;2024-03-23T07:56:44;1.35;;;0.50;;
21675;SDS011;10999;51.332;9.458;2024-03-23T07:59:10;4.63;;;0.57;;
21675;SDS011;10999;51.332;9.458;2024-03-23T08:01:36;2.00;;;0.43;;
21675;SDS011;10999;51.332;9.458;2024-03-23T08:04:02;1.75;;;0.50;;
21675;SDS011;10999;51.332;9.458;2024-03-23T08:06:28;5.75;;;0.73;;
21675;SDS011;10999;51.332;9.458;2024-03-23T08:08:56;5.88;;;0.65;;
21675;SDS011;10999;51.332;9.458;2024-03-23T08:11:26;3.15;;;0.60;;
21675;SDS011;10999;51.332;9.458;2024-03-23T08:13:53;5.53;;;0.80;;
21675;SDS011;10999;51.332;9.458;2024-03-23T08:16:19;3.88;;;1.20;;
21675;SDS011;10999;51.332;9.458;2024-03-23T08:18:44;4.22;;;0.70;;
21675;SDS011;10999;51.332;9.458;2024-03-23T08:21:10;6.68;;;1.27;;
21675;SDS011;10999;51.332;9.458;2024-03-23T08:23:36;4.57;;;0.80;;
21675;SDS011;10999;51.332;9.458;2024-03-23T08:26:03;3.40;;;0.95;;
21675;SDS011;10999;51.332;9.458;2024-03-23T08:28:33;9.02;;;1.40;;
21675;SDS011;10999;51.332;9.458;2024-03-23T08:31:18;4.38;;;1.20;;
21675;SDS011;10999;51.332;9.458;2024-03-23T08:33:43;6.30;;;1.77;;
21675;SDS011;10999;51.332;9.458;2024-03-23T08:36:10;8.70;;;2.08;;
21675;SDS011;10999;51.332;9.458;2024-03-23T08:41:08;5.95;;;2.10;;
21675;SDS011;10999;51.332;9.458;2024-03-23T08:43:36;5.57;;;2.15;;
21675;SDS011;10999;51.332;9.458;2024-03-23T08:46:10;8.10;;;2.38;;
21675;SDS011;10999;51.332;9.458;2024-03-23T08:48:41;11.30;;;2.90;;
21675;SDS011;10999;51.332;9.458;2024-03-23T08:51:12;8.55;;;2.55;;
21675;SDS011;10999;51.332;9.458;2024-03-23T08:53:39;8.48;;;3.10;;
21675;SDS011;10999;51.332;9.458;2024-03-23T08:56:06;8.65;;;3.22;;
21675;SDS011;10999;51.332;9.458;2024-03-23T08:58:33;9.82;;;3.47;;
21675;SDS011;10999;51.332;9.458;2024-03-23T09:01:07;7.93;;;3.15;;
21675;SDS011;10999;51.332;9.458;2024-03-23T09:03:34;9.95;;;4.13;;
21675;SDS011;10999;51.332;9.458;2024-03-23T09:06:01;13.77;;;3.53;;
21675;SDS011;10999;51.332;9.458;2024-03-23T09:08:33;10.20;;;3.45;;
21675;SDS011;10999;51.332;9.458;2024-03-23T09:11:07;8.55;;;3.45;;
21675;SDS011;10999;51.332;9.458;2024-03-23T09:13:37;13.52;;;5.18;;
21675;SDS011;10999;51.332;9.458;2024-03-23T09:16:04;14.25;;;4.80;;
21675;SDS011;10999;51.332;9.458;2024-03-23T09:18:31;11.10;;;4.07;;
21675;SDS011;10999;51.332;9.458;2024-03-23T09:20:58;14.73;;;4.38;;
21675;SDS011;10999;51.332;9.458;2024-03-23T09:23:24;10.10;;;4.00;;
21675;SDS011;10999;51.332;9.458;2024-03-23T09:25:50;16.02;;;4.60;;
21675;SDS011;10999;51.332;9.458;2024-03-23T09:28:16;13.60;;;4.40;;
21675;SDS011;10999;51.332;9.458;2024-03-23T09:30:42;13.88;;;4.50;;
21675;SDS011;10999;51.332;9.458;2024-03-23T09:33:08;10.68;;;4.32;;
21675;SDS011;10999;51.332;9.458;2024-03-23T09:35:37;11.38;;;4.53;;
21675;SDS011;10999;51.332;9.458;2024-03-23T09:38:07;11.35;;;4.90;;
21675;SDS011;10999;51.332;9.458;2024-03-23T09:40:34;12.40;;;4.43;;
21675;SDS011;10999;51.332;9.458;2024-03-23T09:43:06;9.63;;;3.33;;
21675;SDS011;10999;51.332;9.458;2024-03-23T09:45:32;10.07;;;4.32;;
21675;SDS011;10999;51.332;9.458;2024-03-23T09:48:01;14.27;;;4.80;;
21675;SDS011;10999;51.332;9.458;2024-03-23T09:50:27;12.77;;;4.15;;
21675;SDS011;10999;51.332;9.458;2024-03-23T09:52:53;9.07;;;3.65;;
21675;SDS011;10999;51.332;9.458;2024-03-23T09:55:19;12.25;;;4.28;;
21675;SDS011;10999;51.332;9.458;2024-03-23T09:57:45;14.45;;;4.18;;
21675;SDS011;10999;51.332;9.458;2024-03-23T10:00:11;10.00;;;2.90;;
21675;SDS011;10999;51.332;9.458;2024-03-23T10:02:37;11.73;;;3.70;;
21675;SDS011;10999;51.332;9.458;2024-03-23T10:05:03;8.98;;;3.28;;
21675;SDS011;10999;51.332;9.458;2024-03-23T10:07:29;11.00;;;3.45;;
21675;SDS011;10999;51.332;9.458;2024-03-23T10:09:55;8.68;;;3.08;;
21675;SDS011;10999;51.332;9.458;2024-03-23T10:14:48;7.65;;;2.25;;
21675;SDS011;10999;51.332;9.458;2024-03-23T10:17:21;11.27;;;2.80;;
21675;SDS011;10999;51.332;9.458;2024-03-23T10:19:50;9.30;;;2.53;;
21675;SDS011;10999;51.332;9.458;2024-03-23T10:22:17;8.25;;;2.63;;
21675;SDS011;10999;51.332;9.458;2024-03-23T10:24:48;8.60;;;2.63;;
21675;SDS011;10999;51.332;9.458;2024-03-23T10:27:21;9.90;;;2.47;;
21675;SDS011;10999;51.332;9.458;2024-03-23T10:29:50;10.13;;;3.03;;
21675;SDS011;10999;51.332;9.458;2024-03-23T10:32:17;7.30;;;2.13;;
21675;SDS011;10999;51.332;9.458;2024-03-23T10:34:43;10.55;;;2.30;;
21675;SDS011;10999;51.332;9.458;2024-03-23T10:37:09;8.80;;;2.65;;
21675;SDS011;10999;51.332;9.458;2024-03-23T10:42:03;7.95;;;2.13;;
21675;SDS011;10999;51.332;9.458;2024-03-23T10:44:30;5.82;;;2.50;;
21675;SDS011;10999;51.332;9.458;2024-03-23T10:46:56;6.30;;;1.88;;
21675;SDS011;10999;51.332;9.458;2024-03-23T10:51:57;7.05;;;1.90;;
21675;SDS011;10999;51.332;9.458;2024-03-23T10:54:27;5.82;;;1.98;;
21675;SDS011;10999;51.332;9.458;2024-03-23T10:57:00;9.10;;;2.67;;
21675;SDS011;10999;51.332;9.458;2024-03-23T10:59:31;7.88;;;1.77;;
21675;SDS011;10999;51.332;9.458;2024-03-23T11:01:58;6.18;;;1.40;;
21675;SDS011;10999;51.332;9.458;2024-03-23T11:06:57;9.07;;;1.90;;
21675;SDS011;10999;51.332;9.458;2024-03-23T11:14:48;8.82;;;1.83;;
21675;SDS011;10999;51.332;9.458;2024-03-23T11:17:21;3.88;;;1.30;;
21675;SDS011;10999;51.332;9.458;2024-03-23T11:19:54;6.07;;;1.20;;
21675;SDS011;10999;51.332;9.458;2024-03-23T11:22:44;4.00;;;1.75;;
21675;SDS011;10999;51.332;9.458;2024-03-23T11:25:15;4.53;;;1.45;;
21675;SDS011;10999;51.332;9.458;2024-03-23T11:27:46;2.80;;;0.98;;
21675;SDS011;10999;51.332;9.458;2024-03-23T11:30:19;3.55;;;1.15;;
21675;SDS011;10999;51.332;9.458;2024-03-23T11:32:49;6.82;;;1.30;;
21675;SDS011;10999;51.332;9.458;2024-03-23T11:35:26;3.83;;;0.90;;
21675;SDS011;10999;51.332;9.458;2024-03-23T11:38:04;2.78;;;0.95;;
21675;SDS011;10999;51.332;9.458;2024-03-23T11:40:36;5.78;;;1.15;;
21675;SDS011;10999;51.332;9.458;2024-03-23T11:43:10;5.22;;;1.02;;
21675;SDS011;10999;51.332;9.458;2024-03-23T11:45:39;2.17;;;0.90;;
21675;SDS011;10999;51.332;9.458;2024-03-23T11:48:20;3.25;;;1.00;;
21675;SDS011;10999;51.332;9.458;2024-03-23T11:50:48;3.92;;;1.02;;
21675;SDS011;10999;51.332;9.458;2024-03-23T11:53:18;3.40;;;0.88;;
21675;SDS011;10999;51.332;9.458;2024-03-23T11:55:49;2.92;;;1.10;;
21675;SDS011;10999;51.332;9.458;2024-03-23T11:58:16;9.10;;;2.13;;
21675;SDS011;10999;51.332;9.458;2024-03-23T12:00:56;2.78;;;0.70;;
21675;SDS011;10999;51.332;9.458;2024-03-23T12:03:23;3.22;;;0.60;;
21675;SDS011;10999;51.332;9.458;2024-03-23T12:05:58;1.73;;;0.70;;
21675;SDS011;10999;51.332;9.458;2024-03-23T12:08:29;1.65;;;0.70;;
21675;SDS011;10999;51.332;9.458;2024-03-23T12:13:32;4.03;;;0.77;;
21675;SDS011;10999;51.332;9.458;2024-03-23T12:16:17;2.95;;;0.35;;
21675;SDS011;10999;51.332;9.458;2024-03-23T12:18:48;2.13;;;0.70;;
21675;SDS011;10999;51.332;9.458;2024-03-23T12:21:15;0.40;;;0.28;;
21675;SDS011;10999;51.332;9.458;2024-03-23T12:23:42;0.90;;;0.32;;
21675;SDS011;10999;51.332;9.458;2024-03-23T12:26:12;0.60;;;0.30;;
21675;SDS011;10999;51.332;9.458;2024-03-23T12:28:38;3.10;;;0.40;;
21675;SDS011;10999;51.332;9.458;2024-03-23T12:31:04;0.40;;;0.40;;
21675;SDS011;10999;51.332;9.458;2024-03-23T12:33:30;2.20;;;0.40;;
21675;SDS011;10999;51.332;9.458;2024-03-23T12:35:56;0.90;;;0.40;;
21675;SDS011;10999;51.332;9.458;2024-03-23T12:38:22;1.33;;;0.50;;
21675;SDS011;10999;51.332;9.458;2024-03-23T12:40:49;5.90;;;0.77;;
21675;SDS011;10999;51.332;9.458;2024-03-23T12:43:15;4.07;;;1.02;;
21675;SDS011;10999;51.332;9.458;2024-03-23T12:48:11;1.83;;;0.73;;
21675;SDS011;10999;51.332;9.458;2024-03-23T12:50:37;1.30;;;0.75;;
21675;SDS011;10999;51.332;9.458;2024-03-23T12:53:03;4.50;;;0.90;;
21675;SDS011;10999;51.332;9.458;2024-03-23T12:55:29;2.75;;;0.75;;
21675;SDS011;10999;51.332;9.458;2024-03-23T12:57:54;2.78;;;0.70;;
21675;SDS011;10999;51.332;9.458;2024-03-23T13:00:20;3.55;;;0.80;;
21675;SDS011;10999;51.332;9.458;2024-03-23T13:02:46;2.63;;;0.98;;
21675;SDS011;10999;51.332;9.458;2024-03-23T13:05:12;4.78;;;1.05;;
21675;SDS011;10999;51.332;9.458;2024-03-23T13:07:38;2.75;;;0.90;;
21675;SDS011;10999;51.332;9.458;2024-03-23T13:10:04;4.78;;;1.17;;
21675;SDS011;10999;51.332;9.458;2024-03-23T13:12:31;1.80;;;0.73;;
21675;SDS011;10999;51.332;9.458;2024-03-23T13:14:58;4.82;;;1.25;;
21675;SDS011;10999;51.332;9.458;2024-03-23T13:17:25;2.05;;;0.75;;
21675;SDS011;10999;51.332;9.458;2024-03-23T13:19:52;2.63;;;0.70;;
21675;SDS011;10999;51.332;9.458;2024-03-23T13:22:19;2.65;;;1.10;;
21675;SDS011;10999;51.332;9.458;2024-03-23T13:24:45;2.53;;;0.90;;
21675;SDS011;10999;51.332;9.458;2024-03-23T13:27:11;3.13;;;0.80;;
21675;SDS011;10999;51.332;9.458;2024-03-23T13:29:37;3.30;;;0.90;;
21675;SDS011;10999;51.332;9.458;2024-03-23T13:32:03;2.45;;;0.93;;
21675;SDS011;10999;51.332;9.458;2024-03-23T13:36:55;3.33;;;0.70;;
21675;SDS011;10999;51.332;9.458;2024-03-23T13:39:23;1.73;;;0.75;;
21675;SDS011;10999;51.332;9.458;2024-03-23T13:41:49;2.15;;;0.57;;
21675;SDS011;10999;51.332;9.458;2024-03-23T13:44:15;1.67;;;0.57;;
21675;SDS011;10999;51.332;9.458;2024-03-23T13:46:41;0.82;;;0.45;;
21675;SDS011;10999;51.332;9.458;2024-03-23T13:51:54;1.00;;;0.50;;
21675;SDS011;10999;51.332;9.458;2024-03-23T13:54:21;0.82;;;0.32;;
21675;SDS011;10999;51.332;9.458;2024-03-23T13:56:50;2.17;;;0.80;;
21675;SDS011;10999;51.332;9.458;2024-03-23T13:59:16;2.55;;;0.32;;
21675;SDS011;10999;51.332;9.458;2024-03-23T14:01:43;4.07;;;0.50;;
21675;SDS011;10999;51.332;9.458;2024-03-23T14:04:11;1.08;;;0.20;;
21675;SDS011;10999;51.332;9.458;2024-03-23T14:09:03;1.35;;;0.45;;
21675;SDS011;10999;51.332;9.458;2024-03-23T14:11:29;1.10;;;0.38;;
21675;SDS011;10999;51.332;9.458;2024-03-23T14:16:21;0.98;;;0.30;;
21675;SDS011;10999;51.332;9.458;2024-03-23T14:18:47;0.40;;;0.30;;
21675;SDS011;10999;51.332;9.458;2024-03-23T14:21:13;0.90;;;0.45;;
21675;SDS011;10999;51.332;9.458;2024-03-23T14:23:39;1.52;;;0.60;;
21675;SDS011;10999;51.332;9.458;2024-03-23T14:26:06;0.65;;;0.40;;
21675;SDS011;10999;51.332;9.458;2024-03-23T14:28:33;1.40;;;0.40;;
21675;SDS011;10999;51.332;9.458;2024-03-23T14:30:59;0.60;;;0.30;;
21675;SDS011;10999;51.332;9.458;2024-03-23T14:33:25;1.48;;;0.55;;
21675;SDS011;10999;51.332;9.458;2024-03-23T14:35:57;1.92;;;0.60;;
21675;SDS011;10999;51.332;9.458;2024-03-23T14:38:23;1.73;;;0.70;;
21675;SDS011;10999;51.332;9.458;2024-03-23T14:40:49;2.08;;;0.50;;
21675;SDS011;10999;51.332;9.458;2024-03-23T14:43:16;0.93;;;0.43;;
21675;SDS011;10999;51.332;9.458;2024-03-23T14:48:38;3.38;;;0.63;;
21675;SDS011;10999;51.332;9.458;2024-03-23T14:51:04;0.90;;;0.70;;
21675;SDS011;10999;51.332;9.458;2024-03-23T14:53:35;1.42;;;0.52;;
21675;SDS011;10999;51.332;9.458;2024-03-23T14:56:03;0.47;;;0.30;;
21675;SDS011;10999;51.332;9.458;2024-03-23T15:01:02;1.65;;;0.70;;
21675;SDS011;10999;51.332;9.458;2024-03-23T15:03:35;3.13;;;0.80;;
21675;SDS011;10999;51.332;9.458;2024-03-23T15:06:01;1.13;;;0.50;;
21675;SDS011;10999;51.332;9.458;2024-03-23T15:08:27;1.83;;;0.63;;
21675;SDS011;10999;51.332;9.458;2024-03-23T15:13:19;2.35;;;0.90;;
21675;SDS011;10999;51.332;9.458;2024-03-23T15:15:46;2.35;;;0.80;;
21675;SDS011;10999;51.332;9.458;2024-03-23T15:18:16;2.30;;;0.98;;
21675;SDS011;10999;51.332;9.458;2024-03-23T15:20:57;2.08;;;0.60;;
21675;SDS011;10999;51.332;9.458;2024-03-23T15:23:27;2.00;;;0.60;;
21675;SDS011;10999;51.332;9.458;2024-03-23T15:25:57;1.40;;;0.50;;
21675;SDS011;10999;51.332;9.458;2024-03-23T15:28:27;2.75;;;0.55;;
21675;SDS011;10999;51.332;9.458;2024-03-23T15:33:37;1.63;;;0.60;;
21675;SDS011;10999;51.332;9.458;2024-03-23T15:36:05;5.35;;;0.90;;
21675;SDS011;10999;51.332;9.458;2024-03-23T15:38:31;2.00;;;0.88;;
21675;SDS011;10999;51.332;9.458;2024-03-23T15:40:58;5.05;;;1.20;;
21675;SDS011;10999;51.332;9.458;2024-03-23T15:43:24;2.55;;;0.60;;
21675;SDS011;10999;51.332;9.458;2024-03-23T15:45:53;3.38;;;1.10;;
21675;SDS011;10999;51.332;9.458;2024-03-23T15:48:23;4.22;;;0.70;;
21675;SDS011;10999;51.332;9.458;2024-03-23T15:50:53;1.55;;;0.55;;
21675;SDS011;10999;51.332;9.458;2024-03-23T15:53:20;1.13;;;0.40;;
21675;SDS011;10999;51.332;9.458;2024-03-23T15:56:20;4.07;;;0.90;;
21675;SDS011;10999;51.332;9.458;2024-03-23T15:58:39;4.22;;;0.60;;
21675;SDS011;10999;51.332;9.458;2024-03-23T16:01:05;0.98;;;0.57;;
21675;SDS011;10999;51.332;9.458;2024-03-23T16:03:34;5.15;;;1.42;;
21675;SDS011;10999;51.332;9.458;2024-03-23T16:06:01;3.30;;;0.50;;
21675;SDS011;10999;51.332;9.458;2024-03-23T16:08:31;2.45;;;0.70;;
21675;SDS011;10999;51.332;9.458;2024-03-23T16:11:01;6.40;;;0.80;;
21675;SDS011;10999;51.332;9.458;2024-03-23T16:13:28;0.90;;;0.40;;
21675;SDS011;10999;51.332;9.458;2024-03-23T16:15:54;1.52;;;0.77;;
21675;SDS011;10999;51.332;9.458;2024-03-23T16:18:24;1.75;;;0.40;;
21675;SDS011;10999;51.332;9.458;2024-03-23T16:23:23;1.75;;;0.70;;
21675;SDS011;10999;51.332;9.458;2024-03-23T16:30:55;3.95;;;1.02;;
21675;SDS011;10999;51.332;9.458;2024-03-23T16:33:25;3.80;;;0.50;;
21675;SDS011;10999;51.332;9.458;2024-03-23T16:35:55;3.10;;;0.75;;
21675;SDS011;10999;51.332;9.458;2024-03-23T16:38:21;1.88;;;0.73;;
21675;SDS011;10999;51.332;9.458;2024-03-23T16:40:59;2.90;;;0.85;;
21675;SDS011;10999;51.332;9.458;2024-03-23T16:43:27;4.85;;;0.73;;
21675;SDS011;10999;51.332;9.458;2024-03-23T16:46:04;6.35;;;0.70;;
21675;SDS011;10999;51.332;9.458;2024-03-23T16:48:36;3.70;;;1.02;;
21675;SDS011;10999;51.332;9.458;2024-03-23T16:51:03;1.52;;;0.52;;